Time;durP1;ratioP1;P1;durP2;ratioP2;P2;SDS_P1;SDS_P2;PMS_P1;PMS_P2;Temp;Humidity;BMP_temperature;BMP_pressure;BME280_temperature;BME280_humidity;BME280_pressure;Samples;Min_cycle;Max_cycle;Signal;HPM_P1;HPM_P2
2023/03/31 00:00:10;;;;;;;3.43;1.60;;;;;;;;;;4981534;28;20464;-51
2023/03/31 00:02:36;;;;;;;5.87;2.43;;;;;;;;;;4956646;28;20236;-53
2023/03/31 00:05:02;;;;;;;1.90;1.40;;;;;;;;;;4982304;28;20996;-51
2023/03/31 00:07:28;;;;;;;3.10;1.70;;;;;;;;;;4947946;28;20444;-51
2023/03/31 00:09:56;;;;;;;3.57;1.73;;;;;;;;;;4988527;28;20444;-52
2023/03/31 00:12:22;;;;;;;6.20;1.30;;;;;;;;;;4962681;28;20277;-53
2023/03/31 00:14:48;;;;;;;3.50;1.90;;;;;;;;;;4990062;28;20909;-53
2023/03/31 00:17:15;;;;;;;3.30;1.63;;;;;;;;;;4929108;28;20563;-53
2023/03/31 00:19:41;;;;;;;4.13;1.87;;;;;;;;;;4985320;28;20988;-53
2023/03/31 00:22:07;;;;;;;5.33;1.97;;;;;;;;;;4949966;28;21006;-53
2023/03/31 00:24:33;;;;;;;2.53;1.20;;;;;;;;;;4977440;28;20259;-53
2023/03/31 00:27:03;;;;;;;6.20;2.13;;;;;;;;;;4958141;28;20449;-54
2023/03/31 00:29:30;;;;;;;3.10;1.43;;;;;;;;;;4962077;28;20447;-52
2023/03/31 00:31:58;;;;;;;3.30;1.80;;;;;;;;;;4971632;28;20499;-52
2023/03/31 00:34:24;;;;;;;5.63;1.93;;;;;;;;;;4957461;28;20453;-53
2023/03/31 00:36:55;;;;;;;3.30;2.07;;;;;;;;;;4978278;28;20454;-52
2023/03/31 00:39:21;;;;;;;4.70;1.90;;;;;;;;;;4972643;28;20447;-52
2023/03/31 00:41:48;;;;;;;3.50;1.87;;;;;;;;;;4977508;28;20937;-52
2023/03/31 00:44:17;;;;;;;5.63;1.57;;;;;;;;;;4958089;28;20479;-52
2023/03/31 00:46:55;;;;;;;9.90;1.63;;;;;;;;;;4981248;28;20451;-54
2023/03/31 00:49:29;;;;;;;3.07;1.90;;;;;;;;;;4950346;28;20470;-52
2023/03/31 00:51:57;;;;;;;3.00;2.13;;;;;;;;;;4988411;28;20436;-52
2023/03/31 00:54:24;;;;;;;2.23;2.03;;;;;;;;;;4950598;28;20444;-51
2023/03/31 00:56:52;;;;;;;4.50;2.37;;;;;;;;;;4985634;28;20513;-53
2023/03/31 00:59:17;;;;;;;3.47;1.50;;;;;;;;;;4957393;28;20469;-52
2023/03/31 01:01:44;;;;;;;8.13;2.87;;;;;;;;;;4980683;28;20933;-52
2023/03/31 01:04:10;;;;;;;5.23;2.40;;;;;;;;;;4945986;28;20483;-52
2023/03/31 01:06:39;;;;;;;2.80;1.87;;;;;;;;;;4980041;28;20449;-53
2023/03/31 01:09:05;;;;;;;7.33;2.37;;;;;;;;;;4942082;28;20455;-51
2023/03/31 01:11:31;;;;;;;2.80;2.23;;;;;;;;;;4985368;28;20421;-52
2023/03/31 01:13:57;;;;;;;4.60;1.90;;;;;;;;;;4946731;28;20452;-54
2023/03/31 01:16:23;;;;;;;5.10;2.37;;;;;;;;;;4971133;28;20463;-53
2023/03/31 01:18:49;;;;;;;6.30;1.43;;;;;;;;;;4943043;28;20464;-51
2023/03/31 01:21:35;;;;;;;6.40;2.00;;;;;;;;;;4974325;28;21159;-53
2023/03/31 01:24:13;;;;;;;3.20;1.57;;;;;;;;;;4980670;28;20498;-52
2023/03/31 01:26:42;;;;;;;5.23;2.33;;;;;;;;;;4974329;28;21019;-53
2023/03/31 01:29:12;;;;;;;3.83;1.93;;;;;;;;;;4957554;28;20561;-53
2023/03/31 01:31:38;;;;;;;2.70;1.70;;;;;;;;;;4986906;28;21376;-52
2023/03/31 01:34:07;;;;;;;4.43;2.07;;;;;;;;;;4962428;28;20448;-51
2023/03/31 01:36:47;;;;;;;13.13;2.17;;;;;;;;;;4982584;28;20638;-52
2023/03/31 01:39:32;;;;;;;2.87;1.87;;;;;;;;;;4960889;28;21444;-53
2023/03/31 01:42:03;;;;;;;3.63;1.87;;;;;;;;;;4984568;28;20942;-51
2023/03/31 01:44:32;;;;;;;7.77;2.43;;;;;;;;;;4963033;28;20508;-50
2023/03/31 01:47:21;;;;;;;2.90;1.63;;;;;;;;;;4982009;28;20432;-52
2023/03/31 01:49:56;;;;;;;3.30;1.93;;;;;;;;;;4935581;28;21805;-50
2023/03/31 01:52:23;;;;;;;3.93;1.93;;;;;;;;;;4978855;28;20452;-52
2023/03/31 01:54:51;;;;;;;2.77;1.70;;;;;;;;;;4965271;28;21274;-51
2023/03/31 01:57:44;;;;;;;3.47;2.10;;;;;;;;;;4982744;28;20436;-51
2023/03/31 02:00:11;;;;;;;5.13;1.43;;;;;;;;;;4955922;28;20452;-51
2023/03/31 02:02:38;;;;;;;4.07;1.93;;;;;;;;;;4989035;28;20443;-51
2023/03/31 02:05:09;;;;;;;4.17;2.13;;;;;;;;;;4960095;28;20448;-52
2023/03/31 02:07:36;;;;;;;2.80;1.47;;;;;;;;;;4966641;28;20450;-52
2023/03/31 02:10:04;;;;;;;3.07;1.30;;;;;;;;;;4931698;28;21330;-53
2023/03/31 02:12:30;;;;;;;3.57;1.50;;;;;;;;;;4966101;28;20607;-52
2023/03/31 02:14:56;;;;;;;5.83;2.40;;;;;;;;;;4952367;28;20446;-52
2023/03/31 02:17:29;;;;;;;1.97;1.63;;;;;;;;;;4987493;28;21161;-54
2023/03/31 02:19:59;;;;;;;3.20;2.00;;;;;;;;;;4971156;28;20440;-53
2023/03/31 02:22:29;;;;;;;2.03;1.67;;;;;;;;;;4969253;28;21038;-53
2023/03/31 02:24:55;;;;;;;2.50;1.80;;;;;;;;;;4971898;28;20467;-52
2023/03/31 02:27:34;;;;;;;7.10;1.90;;;;;;;;;;4986249;28;20469;-53
2023/03/31 02:30:02;;;;;;;3.17;1.87;;;;;;;;;;4947467;28;20765;-52
2023/03/31 02:32:32;;;;;;;4.00;1.80;;;;;;;;;;4974151;28;20862;-51
2023/03/31 02:34:58;;;;;;;4.43;1.90;;;;;;;;;;4940750;28;20480;-51
2023/03/31 02:37:24;;;;;;;7.40;2.30;;;;;;;;;;4985989;28;20472;-51
2023/03/31 02:39:50;;;;;;;3.53;1.90;;;;;;;;;;4958730;28;20808;-51
2023/03/31 02:42:16;;;;;;;4.87;1.87;;;;;;;;;;4977200;28;20466;-54
2023/03/31 02:44:42;;;;;;;3.23;2.00;;;;;;;;;;4957406;28;20747;-51
2023/03/31 02:47:12;;;;;;;3.40;2.30;;;;;;;;;;4957560;28;20433;-52
2023/03/31 02:49:39;;;;;;;7.30;2.30;;;;;;;;;;4953060;28;20440;-51
2023/03/31 02:52:09;;;;;;;2.30;2.10;;;;;;;;;;4969192;28;20441;-52
2023/03/31 02:54:47;;;;;;;6.87;2.00;;;;;;;;;;4939173;28;20542;-53
2023/03/31 02:57:13;;;;;;;4.93;1.80;;;;;;;;;;4978517;28;21015;-51
2023/03/31 02:59:42;;;;;;;3.80;1.90;;;;;;;;;;4977954;28;20467;-50
2023/03/31 03:02:12;;;;;;;6.03;2.50;;;;;;;;;;4980419;28;20442;-52
2023/03/31 03:04:58;;;;;;;4.83;2.20;;;;;;;;;;4983768;28;20476;-52
2023/03/31 03:07:28;;;;;;;7.37;2.47;;;;;;;;;;4985198;28;20789;-53
2023/03/31 03:09:57;;;;;;;3.97;2.77;;;;;;;;;;4944303;28;20508;-52
2023/03/31 03:12:28;;;;;;;4.70;2.40;;;;;;;;;;4979427;28;20530;-52
2023/03/31 03:15:02;;;;;;;6.67;2.53;;;;;;;;;;4966555;28;20444;-52
2023/03/31 03:17:28;;;;;;;4.50;2.40;;;;;;;;;;4963903;28;20467;-52
2023/03/31 03:19:55;;;;;;;4.60;2.40;;;;;;;;;;4951612;28;20801;-53
2023/03/31 03:22:21;;;;;;;5.47;2.37;;;;;;;;;;4983328;28;20440;-51
2023/03/31 03:24:47;;;;;;;4.20;2.10;;;;;;;;;;4977395;28;20472;-51
2023/03/31 03:27:13;;;;;;;9.00;2.70;;;;;;;;;;4987338;28;20451;-53
2023/03/31 03:29:40;;;;;;;4.23;2.43;;;;;;;;;;4947920;28;20517;-52
2023/03/31 03:32:06;;;;;;;4.87;2.50;;;;;;;;;;4981241;28;20438;-51
2023/03/31 03:34:32;;;;;;;2.90;2.27;;;;;;;;;;4961152;28;20449;-52
2023/03/31 03:36:58;;;;;;;4.60;1.83;;;;;;;;;;4987647;28;20433;-52
2023/03/31 03:39:25;;;;;;;6.13;3.03;;;;;;;;;;4948197;28;20993;-53
2023/03/31 03:41:51;;;;;;;3.90;2.30;;;;;;;;;;4991760;28;20448;-52
2023/03/31 03:44:17;;;;;;;8.87;2.50;;;;;;;;;;4964877;28;20480;-52
2023/03/31 03:46:43;;;;;;;5.30;2.77;;;;;;;;;;4990419;28;20193;-52
2023/03/31 03:49:09;;;;;;;7.33;1.97;;;;;;;;;;4964908;28;20909;-53
2023/03/31 03:51:35;;;;;;;3.67;2.33;;;;;;;;;;4988758;28;20531;-53
2023/03/31 03:54:01;;;;;;;3.10;2.50;;;;;;;;;;4968944;28;20448;-53
2023/03/31 03:56:27;;;;;;;5.07;2.70;;;;;;;;;;4983495;28;20433;-52
2023/03/31 03:58:57;;;;;;;4.47;2.20;;;;;;;;;;4971999;28;20763;-50
2023/03/31 04:01:23;;;;;;;4.83;2.30;;;;;;;;;;4971139;28;20428;-54
2023/03/31 04:03:49;;;;;;;3.80;2.30;;;;;;;;;;4985318;28;20479;-53
2023/03/31 04:06:15;;;;;;;5.10;2.20;;;;;;;;;;4985267;28;20428;-52
2023/03/31 04:08:41;;;;;;;3.10;2.27;;;;;;;;;;4980315;28;20451;-53
2023/03/31 04:11:15;;;;;;;4.33;3.00;;;;;;;;;;4963268;28;20455;-53
2023/03/31 04:13:41;;;;;;;6.33;2.70;;;;;;;;;;4962257;28;20449;-50
2023/03/31 04:16:07;;;;;;;3.40;2.70;;;;;;;;;;4974614;28;20444;-51
2023/03/31 04:18:35;;;;;;;6.80;2.70;;;;;;;;;;4977193;28;20447;-52
2023/03/31 04:21:04;;;;;;;8.33;3.23;;;;;;;;;;4978001;28;20435;-52
2023/03/31 04:23:34;;;;;;;4.20;2.60;;;;;;;;;;4973275;28;20563;-52
2023/03/31 04:26:01;;;;;;;5.90;2.90;;;;;;;;;;4968377;28;20494;-51
2023/03/31 04:28:33;;;;;;;5.33;3.20;;;;;;;;;;4958452;28;20554;-51
2023/03/31 04:31:08;;;;;;;3.30;2.90;;;;;;;;;;4984822;28;20688;-52
2023/03/31 04:33:37;;;;;;;5.47;2.87;;;;;;;;;;4940767;28;20441;-52
2023/03/31 04:36:05;;;;;;;6.70;3.10;;;;;;;;;;4983127;28;20474;-51
2023/03/31 04:38:32;;;;;;;6.37;2.80;;;;;;;;;;4959021;28;20606;-51
2023/03/31 04:40:58;;;;;;;2.40;2.20;;;;;;;;;;4982892;28;20487;-52
2023/03/31 04:43:24;;;;;;;5.90;3.10;;;;;;;;;;4944757;28;20468;-51
2023/03/31 04:45:50;;;;;;;5.03;2.67;;;;;;;;;;4989158;28;20971;-53
2023/03/31 04:48:16;;;;;;;6.43;3.47;;;;;;;;;;4951682;28;20444;-51
2023/03/31 04:50:42;;;;;;;10.03;3.30;;;;;;;;;;4981062;28;20452;-53
2023/03/31 04:53:08;;;;;;;4.10;2.87;;;;;;;;;;4980267;28;20824;-52
2023/03/31 04:55:34;;;;;;;4.77;3.30;;;;;;;;;;4980965;28;20466;-52
2023/03/31 04:58:00;;;;;;;5.07;2.70;;;;;;;;;;4971981;28;20440;-52
2023/03/31 05:03:20;;;;;;;8.20;4.43;;;;;;;;;;4934020;28;21068;-53
2023/03/31 05:05:46;;;;;;;3.33;2.90;;;;;;;;;;4978904;28;20431;-52
2023/03/31 05:08:12;;;;;;;9.57;2.90;;;;;;;;;;4995886;28;20953;-57
2023/03/31 05:10:38;;;;;;;5.67;3.43;;;;;;;;;;4994682;28;21567;-51
2023/03/31 05:13:04;;;;;;;6.03;2.97;;;;;;;;;;4987445;28;20502;-53
2023/03/31 05:15:30;;;;;;;6.27;3.57;;;;;;;;;;4965720;28;20448;-52
2023/03/31 05:17:57;;;;;;;4.73;3.00;;;;;;;;;;4971572;28;20432;-53
2023/03/31 05:20:24;;;;;;;4.67;3.87;;;;;;;;;;4968365;28;20451;-54
2023/03/31 05:22:50;;;;;;;7.60;4.30;;;;;;;;;;4985511;28;20603;-53
2023/03/31 05:25:19;;;;;;;9.17;3.87;;;;;;;;;;4975688;28;20495;-54
2023/03/31 05:27:46;;;;;;;10.70;4.33;;;;;;;;;;4987750;28;20937;-54
2023/03/31 05:30:12;;;;;;;7.20;3.80;;;;;;;;;;4983466;28;20550;-53
2023/03/31 05:32:38;;;;;;;11.20;3.93;;;;;;;;;;4974790;28;20437;-54
2023/03/31 05:35:12;;;;;;;12.17;4.50;;;;;;;;;;4994052;28;20436;-51
2023/03/31 05:37:46;;;;;;;5.60;3.90;;;;;;;;;;4953328;28;20435;-54
2023/03/31 05:40:12;;;;;;;4.83;3.83;;;;;;;;;;5002052;28;20453;-54
2023/03/31 05:42:38;;;;;;;8.50;4.50;;;;;;;;;;4976657;28;20224;-53
2023/03/31 05:45:04;;;;;;;11.00;5.30;;;;;;;;;;5003275;28;20930;-53
2023/03/31 05:47:31;;;;;;;7.10;4.50;;;;;;;;;;4999768;28;20474;-53
2023/03/31 05:49:57;;;;;;;7.90;4.73;;;;;;;;;;4988618;28;20432;-53
2023/03/31 05:52:23;;;;;;;7.43;5.40;;;;;;;;;;4969455;28;21010;-53
2023/03/31 05:54:49;;;;;;;12.37;4.60;;;;;;;;;;4997585;28;20448;-54
2023/03/31 05:57:15;;;;;;;6.27;4.10;;;;;;;;;;4997921;28;20192;-54
2023/03/31 05:59:41;;;;;;;7.33;3.87;;;;;;;;;;5002796;28;20804;-55
2023/03/31 06:02:07;;;;;;;5.70;4.63;;;;;;;;;;4972529;28;20456;-53
2023/03/31 06:04:33;;;;;;;5.90;4.10;;;;;;;;;;4995589;28;20971;-51
2023/03/31 06:06:59;;;;;;;9.73;4.60;;;;;;;;;;4957682;28;20444;-54
2023/03/31 06:09:25;;;;;;;11.83;4.37;;;;;;;;;;4993277;28;20505;-54
2023/03/31 06:11:51;;;;;;;7.50;4.90;;;;;;;;;;4995163;28;21137;-54
2023/03/31 06:14:17;;;;;;;12.03;4.83;;;;;;;;;;5003544;28;20436;-54
2023/03/31 06:16:43;;;;;;;9.47;5.07;;;;;;;;;;4999796;28;20642;-53
2023/03/31 06:19:09;;;;;;;9.97;5.40;;;;;;;;;;4997359;28;20949;-53
2023/03/31 06:21:35;;;;;;;9.23;5.87;;;;;;;;;;4972435;28;20450;-54
2023/03/31 06:24:01;;;;;;;12.30;5.60;;;;;;;;;;4992579;28;20475;-53
2023/03/31 06:26:27;;;;;;;9.10;4.93;;;;;;;;;;4982574;28;20984;-52
2023/03/31 06:28:53;;;;;;;6.90;5.00;;;;;;;;;;5001923;28;20972;-52
2023/03/31 06:31:20;;;;;;;7.43;4.87;;;;;;;;;;4975373;28;20454;-51
2023/03/31 06:33:46;;;;;;;7.33;6.70;;;;;;;;;;5002476;28;21112;-53
2023/03/31 06:36:22;;;;;;;10.80;5.90;;;;;;;;;;4985874;28;20581;-51
2023/03/31 06:38:50;;;;;;;7.20;4.93;;;;;;;;;;4971865;28;20503;-53
2023/03/31 06:41:17;;;;;;;9.40;5.40;;;;;;;;;;5003121;28;20526;-54
2023/03/31 06:43:43;;;;;;;6.80;3.87;;;;;;;;;;4941301;28;20512;-53
2023/03/31 06:46:09;;;;;;;6.40;4.57;;;;;;;;;;4989956;28;20984;-53
2023/03/31 06:48:35;;;;;;;10.70;6.10;;;;;;;;;;4978519;28;21368;-57
2023/03/31 06:51:02;;;;;;;8.40;5.33;;;;;;;;;;4998377;28;20450;-53
2023/03/31 06:53:28;;;;;;;6.77;4.73;;;;;;;;;;4970706;28;20444;-54
2023/03/31 06:55:54;;;;;;;10.63;5.17;;;;;;;;;;4978372;28;20432;-53
2023/03/31 06:58:20;;;;;;;8.07;5.37;;;;;;;;;;4991052;28;20440;-53
2023/03/31 07:00:46;;;;;;;9.10;5.73;;;;;;;;;;4995232;28;20563;-54
2023/03/31 07:03:13;;;;;;;10.07;5.80;;;;;;;;;;4967765;28;21463;-54
2023/03/31 07:05:39;;;;;;;8.53;4.70;;;;;;;;;;4980335;28;20539;-53
2023/03/31 07:08:10;;;;;;;5.67;4.40;;;;;;;;;;4968558;28;20868;-54
2023/03/31 07:10:36;;;;;;;9.30;6.00;;;;;;;;;;4981293;28;20548;-52
2023/03/31 07:13:03;;;;;;;6.73;4.10;;;;;;;;;;4973365;28;20483;-55
2023/03/31 07:15:29;;;;;;;6.20;4.03;;;;;;;;;;4987489;28;21483;-53
2023/03/31 07:18:00;;;;;;;10.10;4.70;;;;;;;;;;4988755;28;20444;-53
2023/03/31 07:20:26;;;;;;;4.93;3.27;;;;;;;;;;4989210;28;20457;-53
2023/03/31 07:22:52;;;;;;;9.70;3.60;;;;;;;;;;4980432;28;20495;-54
2023/03/31 07:25:18;;;;;;;7.10;3.53;;;;;;;;;;4990731;28;20579;-54
2023/03/31 07:27:45;;;;;;;4.43;3.13;;;;;;;;;;4988423;28;20432;-55
2023/03/31 07:30:14;;;;;;;5.93;4.00;;;;;;;;;;4975747;28;20437;-53
2023/03/31 07:32:40;;;;;;;5.67;2.93;;;;;;;;;;4990737;28;20463;-54
2023/03/31 07:35:07;;;;;;;4.13;2.03;;;;;;;;;;4977713;28;20448;-55
2023/03/31 07:37:48;;;;;;;2.50;2.13;;;;;;;;;;4994352;28;20448;-53
2023/03/31 07:40:15;;;;;;;3.20;2.20;;;;;;;;;;4926761;28;21176;-53
2023/03/31 07:42:41;;;;;;;3.13;2.53;;;;;;;;;;4992263;28;20428;-54
2023/03/31 07:45:07;;;;;;;4.33;2.03;;;;;;;;;;4983915;28;23068;-53
2023/03/31 07:47:34;;;;;;;3.97;2.17;;;;;;;;;;4973768;28;21305;-53
2023/03/31 07:50:00;;;;;;;3.90;2.00;;;;;;;;;;4980852;28;21473;-54
2023/03/31 07:52:26;;;;;;;2.07;1.63;;;;;;;;;;4979112;28;20523;-54
2023/03/31 07:54:52;;;;;;;2.27;1.40;;;;;;;;;;4995345;28;21000;-56
2023/03/31 07:57:18;;;;;;;7.10;2.60;;;;;;;;;;4991894;28;20447;-52
2023/03/31 07:59:44;;;;;;;2.33;1.40;;;;;;;;;;4994251;28;20431;-54
2023/03/31 08:02:11;;;;;;;1.80;1.20;;;;;;;;;;4968445;28;20436;-52
2023/03/31 08:04:37;;;;;;;2.50;1.23;;;;;;;;;;4984727;28;20477;-52
2023/03/31 08:07:04;;;;;;;2.30;1.40;;;;;;;;;;4955765;28;21043;-54
2023/03/31 08:09:30;;;;;;;1.47;1.23;;;;;;;;;;4999634;28;20432;-53
2023/03/31 08:11:56;;;;;;;2.70;1.20;;;;;;;;;;4955524;28;20447;-52
2023/03/31 08:14:21;;;;;;;3.33;1.33;;;;;;;;;;4995974;28;20498;-51
2023/03/31 08:16:47;;;;;;;1.53;1.40;;;;;;;;;;4992726;28;20447;-52
2023/03/31 08:19:13;;;;;;;2.17;0.90;;;;;;;;;;4996318;28;20456;-52
2023/03/31 08:21:39;;;;;;;2.23;1.10;;;;;;;;;;4975930;28;20223;-52
2023/03/31 08:24:05;;;;;;;1.83;1.07;;;;;;;;;;4996146;28;20490;-51
2023/03/31 08:26:33;;;;;;;4.57;1.13;;;;;;;;;;4988681;28;20428;-52
2023/03/31 08:29:00;;;;;;;1.70;1.00;;;;;;;;;;4999540;28;20432;-53
2023/03/31 08:31:27;;;;;;;3.10;1.27;;;;;;;;;;4968562;28;20479;-53
2023/03/31 08:33:54;;;;;;;4.00;1.00;;;;;;;;;;4987555;28;20447;-52
2023/03/31 08:36:20;;;;;;;4.50;1.30;;;;;;;;;;4970210;28;20551;-51
2023/03/31 08:38:48;;;;;;;2.60;1.20;;;;;;;;;;4993039;28;20455;-52
2023/03/31 08:41:26;;;;;;;3.33;1.53;;;;;;;;;;4973135;28;20432;-52
2023/03/31 08:43:52;;;;;;;1.57;0.97;;;;;;;;;;4969989;28;21190;-55
2023/03/31 08:46:19;;;;;;;2.30;1.40;;;;;;;;;;4974148;28;20444;-52
2023/03/31 08:48:47;;;;;;;2.73;1.10;;;;;;;;;;4975999;28;20615;-53
2023/03/31 08:51:16;;;;;;;3.53;1.33;;;;;;;;;;4994667;28;20421;-54
2023/03/31 08:53:43;;;;;;;4.47;1.60;;;;;;;;;;4999114;28;20444;-53
2023/03/31 08:56:13;;;;;;;1.97;1.67;;;;;;;;;;4970618;28;21289;-51
2023/03/31 08:58:43;;;;;;;2.17;1.10;;;;;;;;;;4997980;28;20459;-50
2023/03/31 09:01:15;;;;;;;3.00;1.47;;;;;;;;;;4978860;28;20637;-52
2023/03/31 09:04:00;;;;;;;2.33;1.60;;;;;;;;;;4996519;28;20476;-53
2023/03/31 09:06:32;;;;;;;2.70;1.10;;;;;;;;;;4969372;28;20483;-52
2023/03/31 09:08:59;;;;;;;2.37;1.40;;;;;;;;;;4996472;28;20447;-52
2023/03/31 09:11:30;;;;;;;2.70;1.37;;;;;;;;;;4956609;28;20440;-53
2023/03/31 09:14:04;;;;;;;2.57;1.67;;;;;;;;;;4989096;28;20996;-52
2023/03/31 09:16:32;;;;;;;1.77;0.97;;;;;;;;;;4995146;28;20440;-53
2023/03/31 09:18:59;;;;;;;3.67;1.73;;;;;;;;;;4955275;28;20453;-49
2023/03/31 09:21:27;;;;;;;2.27;0.97;;;;;;;;;;4992525;28;20799;-53
2023/03/31 09:24:04;;;;;;;5.70;1.27;;;;;;;;;;4962871;28;20592;-54
2023/03/31 09:26:35;;;;;;;2.30;1.40;;;;;;;;;;4975179;28;20447;-54
2023/03/31 09:29:01;;;;;;;2.43;1.20;;;;;;;;;;4974599;28;20436;-54
2023/03/31 09:31:27;;;;;;;2.90;1.40;;;;;;;;;;4981556;28;20498;-54
2023/03/31 09:33:54;;;;;;;8.03;1.40;;;;;;;;;;4988001;28;20437;-51
2023/03/31 09:36:23;;;;;;;3.50;1.23;;;;;;;;;;4983190;28;20173;-51
2023/03/31 09:38:50;;;;;;;3.93;1.33;;;;;;;;;;4971241;28;20440;-52
2023/03/31 09:41:17;;;;;;;2.60;1.20;;;;;;;;;;4988389;28;20432;-52
2023/03/31 09:43:44;;;;;;;2.70;1.50;;;;;;;;;;4955179;28;20484;-51
2023/03/31 09:46:17;;;;;;;6.40;1.20;;;;;;;;;;4979025;28;20451;-54
2023/03/31 09:48:47;;;;;;;2.40;1.30;;;;;;;;;;4974261;28;20447;-54
2023/03/31 09:51:17;;;;;;;3.00;1.10;;;;;;;;;;4984006;28;20514;-50
2023/03/31 09:53:54;;;;;;;2.20;1.17;;;;;;;;;;4950746;28;20449;-54
2023/03/31 09:56:44;;;;;;;3.70;1.13;;;;;;;;;;4995353;28;20435;-50
2023/03/31 09:59:15;;;;;;;4.03;2.20;;;;;;;;;;4960468;28;20433;-52
2023/03/31 10:01:44;;;;;;;2.90;1.97;;;;;;;;;;4992145;28;20444;-52
2023/03/31 10:04:12;;;;;;;3.73;1.60;;;;;;;;;;4967596;28;20485;-53
2023/03/31 10:06:40;;;;;;;8.47;2.10;;;;;;;;;;4986582;28;20456;-53
2023/03/31 10:09:06;;;;;;;5.33;1.33;;;;;;;;;;4969210;28;20433;-51
2023/03/31 10:11:32;;;;;;;2.77;1.50;;;;;;;;;;4977021;28;20451;-51
2023/03/31 10:14:05;;;;;;;5.23;1.97;;;;;;;;;;4957979;28;20451;-53
2023/03/31 10:16:34;;;;;;;3.70;1.80;;;;;;;;;;4993473;28;21261;-53
2023/03/31 10:19:13;;;;;;;2.93;1.30;;;;;;;;;;4989507;28;20542;-52
2023/03/31 10:21:41;;;;;;;2.83;1.40;;;;;;;;;;4992064;28;20531;-52
2023/03/31 10:24:09;;;;;;;2.93;1.40;;;;;;;;;;4981852;28;20482;-51
2023/03/31 10:26:35;;;;;;;2.53;1.40;;;;;;;;;;4975081;28;20932;-51
2023/03/31 10:29:01;;;;;;;3.93;1.57;;;;;;;;;;4997190;28;20436;-51
2023/03/31 10:31:27;;;;;;;3.70;1.30;;;;;;;;;;4976210;28;20186;-52
2023/03/31 10:33:53;;;;;;;3.20;1.37;;;;;;;;;;4997965;28;20435;-51
2023/03/31 10:36:24;;;;;;;3.00;1.10;;;;;;;;;;4959411;28;20823;-52
2023/03/31 10:38:50;;;;;;;3.50;1.37;;;;;;;;;;4967642;28;20745;-52
2023/03/31 10:41:20;;;;;;;3.10;1.60;;;;;;;;;;4957540;28;20446;-53
2023/03/31 10:43:53;;;;;;;3.13;1.27;;;;;;;;;;4982910;28;20579;-52
2023/03/31 10:46:19;;;;;;;3.90;1.90;;;;;;;;;;4948883;28;20854;-51
2023/03/31 10:48:45;;;;;;;5.40;1.57;;;;;;;;;;4983430;28;20972;-52
2023/03/31 10:51:18;;;;;;;3.90;1.83;;;;;;;;;;4993889;28;20511;-52
2023/03/31 10:53:48;;;;;;;3.50;1.50;;;;;;;;;;4993779;28;20497;-53
2023/03/31 10:56:23;;;;;;;5.10;1.77;;;;;;;;;;4981577;28;20769;-53
2023/03/31 10:58:56;;;;;;;5.50;1.33;;;;;;;;;;4989980;28;20522;-53
2023/03/31 11:01:25;;;;;;;1.80;1.20;;;;;;;;;;4958791;28;20442;-53
2023/03/31 11:04:09;;;;;;;3.60;1.83;;;;;;;;;;4991257;28;20475;-56
2023/03/31 11:06:35;;;;;;;3.30;1.23;;;;;;;;;;4971489;28;21554;-53
2023/03/31 11:09:37;;;;;;;3.60;1.50;;;;;;;;;;4994590;28;20444;-53
2023/03/31 11:12:21;;;;;;;4.43;1.27;;;;;;;;;;4914642;28;20446;-52
2023/03/31 11:15:06;;;;;;;6.00;1.70;;;;;;;;;;4990091;28;20455;-54
2023/03/31 11:17:50;;;;;;;14.27;1.70;;;;;;;;;;4928365;28;20514;-53
2023/03/31 11:20:16;;;;;;;1.80;1.10;;;;;;;;;;5000407;28;20432;-54
2023/03/31 11:22:51;;;;;;;8.50;1.20;;;;;;;;;;4980503;28;20429;-54
2023/03/31 11:25:27;;;;;;;1.77;1.13;;;;;;;;;;4999102;28;20444;-54
2023/03/31 11:28:12;;;;;;;7.87;1.37;;;;;;;;;;4963023;28;21172;-53
2023/03/31 11:30:44;;;;;;;1.70;0.67;;;;;;;;;;4991101;28;20432;-53
2023/03/31 11:33:13;;;;;;;1.00;0.57;;;;;;;;;;4971123;28;20945;-52
2023/03/31 11:35:55;;;;;;;2.23;0.87;;;;;;;;;;4982046;28;20490;-52
2023/03/31 11:38:47;;;;;;;2.80;0.80;;;;;;;;;;4965440;28;20467;-54
2023/03/31 11:41:14;;;;;;;1.30;0.70;;;;;;;;;;4960321;28;20440;-53
2023/03/31 11:43:44;;;;;;;1.90;0.70;;;;;;;;;;4938221;28;20510;-52
2023/03/31 11:46:21;;;;;;;1.20;0.60;;;;;;;;;;4976396;28;20618;-52
2023/03/31 11:49:03;;;;;;;1.23;0.90;;;;;;;;;;4926550;28;21824;-53
2023/03/31 11:51:50;;;;;;;1.67;0.77;;;;;;;;;;4980410;28;20583;-53
2023/03/31 11:54:29;;;;;;;1.17;0.60;;;;;;;;;;4989932;28;20444;-52
2023/03/31 11:56:55;;;;;;;2.10;0.70;;;;;;;;;;4986507;28;20448;-53
2023/03/31 11:59:21;;;;;;;2.43;0.70;;;;;;;;;;4974549;28;20523;-53
2023/03/31 12:01:56;;;;;;;1.93;0.80;;;;;;;;;;4997544;28;20473;-52
2023/03/31 12:04:25;;;;;;;1.97;1.17;;;;;;;;;;4978544;28;20603;-52
2023/03/31 12:06:51;;;;;;;4.60;0.90;;;;;;;;;;4995326;28;20440;-54
2023/03/31 12:09:26;;;;;;;2.20;1.00;;;;;;;;;;4956768;28;20447;-53
2023/03/31 12:11:55;;;;;;;1.50;0.60;;;;;;;;;;4998834;28;20431;-55
2023/03/31 12:14:29;;;;;;;1.50;1.00;;;;;;;;;;4972997;28;20604;-54
2023/03/31 12:16:57;;;;;;;1.80;0.70;;;;;;;;;;4980616;28;20456;-54
2023/03/31 12:19:35;;;;;;;1.20;0.80;;;;;;;;;;4940431;28;20449;-55
2023/03/31 12:22:10;;;;;;;1.87;0.90;;;;;;;;;;4991490;28;20511;-52
2023/03/31 12:24:36;;;;;;;2.57;0.80;;;;;;;;;;4977708;28;20481;-52
2023/03/31 12:27:13;;;;;;;4.90;0.80;;;;;;;;;;4981853;28;20427;-53
2023/03/31 12:29:41;;;;;;;1.80;0.80;;;;;;;;;;4951247;28;20447;-53
2023/03/31 12:32:14;;;;;;;1.73;1.00;;;;;;;;;;5000581;28;20547;-53
2023/03/31 12:34:43;;;;;;;1.37;0.50;;;;;;;;;;4971118;28;20456;-52
2023/03/31 12:37:24;;;;;;;2.80;1.07;;;;;;;;;;4991105;28;20944;-52
2023/03/31 12:39:50;;;;;;;2.50;0.90;;;;;;;;;;4958903;28;20523;-54
2023/03/31 12:42:39;;;;;;;1.77;1.40;;;;;;;;;;4999153;28;20868;-53
2023/03/31 12:45:12;;;;;;;1.63;0.70;;;;;;;;;;4985250;28;21083;-51
2023/03/31 12:48:09;;;;;;;3.77;0.70;;;;;;;;;;4984614;28;20424;-53
2023/03/31 12:50:40;;;;;;;2.27;1.20;;;;;;;;;;4946300;28;20444;-55
2023/03/31 12:53:15;;;;;;;4.40;0.90;;;;;;;;;;4958962;28;20451;-54
2023/03/31 12:55:45;;;;;;;2.20;0.80;;;;;;;;;;4992012;28;21127;-51
2023/03/31 12:58:27;;;;;;;1.40;0.60;;;;;;;;;;4972543;28;21352;-53
2023/03/31 13:01:13;;;;;;;2.17;1.00;;;;;;;;;;4995369;28;20835;-53
2023/03/31 13:03:42;;;;;;;3.73;0.90;;;;;;;;;;4992022;28;20482;-56
2023/03/31 13:06:27;;;;;;;3.50;0.90;;;;;;;;;;4983846;28;20631;-53
2023/03/31 13:08:56;;;;;;;3.03;0.90;;;;;;;;;;4956585;28;20454;-53
2023/03/31 13:11:36;;;;;;;2.70;0.90;;;;;;;;;;4995285;28;21299;-52
2023/03/31 13:14:04;;;;;;;4.50;1.40;;;;;;;;;;4999586;28;20511;-52
2023/03/31 13:16:30;;;;;;;6.10;1.57;;;;;;;;;;4982812;28;20502;-53
2023/03/31 13:18:56;;;;;;;4.43;1.37;;;;;;;;;;4998020;28;20436;-53
2023/03/31 13:21:23;;;;;;;2.10;0.97;;;;;;;;;;4997304;28;21257;-55
2023/03/31 13:23:49;;;;;;;2.77;1.03;;;;;;;;;;4959828;28;21154;-54
2023/03/31 13:26:33;;;;;;;2.80;0.70;;;;;;;;;;5000005;28;20983;-52
2023/03/31 13:29:28;;;;;;;5.60;0.90;;;;;;;;;;4976468;28;20466;-52
2023/03/31 13:32:00;;;;;;;1.60;0.90;;;;;;;;;;4990483;28;20435;-51
2023/03/31 13:34:31;;;;;;;3.30;1.03;;;;;;;;;;4996819;28;20458;-52
2023/03/31 13:37:09;;;;;;;4.23;0.80;;;;;;;;;;4988877;28;20464;-55
2023/03/31 13:39:35;;;;;;;2.57;1.00;;;;;;;;;;4978600;28;20455;-56
2023/03/31 13:42:20;;;;;;;4.43;1.83;;;;;;;;;;5004981;28;20930;-54
2023/03/31 13:44:54;;;;;;;1.00;0.70;;;;;;;;;;4980999;28;21047;-54
2023/03/31 13:47:33;;;;;;;1.50;1.00;;;;;;;;;;5003366;28;20451;-52
2023/03/31 13:50:17;;;;;;;2.00;0.97;;;;;;;;;;4981796;28;20505;-53
2023/03/31 13:52:47;;;;;;;6.27;1.00;;;;;;;;;;4985869;28;20559;-54
2023/03/31 13:55:13;;;;;;;5.53;1.00;;;;;;;;;;4983328;28;21079;-53
2023/03/31 13:58:02;;;;;;;2.40;0.80;;;;;;;;;;4992534;28;20570;-59
2023/03/31 14:00:32;;;;;;;1.30;0.70;;;;;;;;;;4952260;28;20455;-51
2023/03/31 14:03:16;;;;;;;1.73;0.90;;;;;;;;;;4984722;28;20455;-52
2023/03/31 14:05:43;;;;;;;1.20;0.70;;;;;;;;;;4972240;28;20193;-52
2023/03/31 14:08:20;;;;;;;1.60;0.77;;;;;;;;;;4980048;28;20441;-51
2023/03/31 14:10:46;;;;;;;2.30;0.70;;;;;;;;;;4969956;28;21541;-53
2023/03/31 14:13:12;;;;;;;1.37;0.70;;;;;;;;;;4994241;28;22255;-52
2023/03/31 14:15:59;;;;;;;2.50;0.63;;;;;;;;;;4971908;28;20483;-54
2023/03/31 14:18:35;;;;;;;1.50;0.90;;;;;;;;;;4999309;28;20435;-53
2023/03/31 14:21:08;;;;;;;1.40;1.10;;;;;;;;;;4977224;28;20976;-54
2023/03/31 14:23:46;;;;;;;1.57;1.10;;;;;;;;;;4993309;28;20671;-54
2023/03/31 14:26:12;;;;;;;8.90;2.60;;;;;;;;;;4991571;28;20432;-56
2023/03/31 14:28:46;;;;;;;1.40;0.80;;;;;;;;;;4993268;28;20467;-55
2023/03/31 14:31:20;;;;;;;1.97;0.83;;;;;;;;;;4975294;28;20911;-54
2023/03/31 14:33:49;;;;;;;1.40;0.70;;;;;;;;;;4994291;28;20428;-54
2023/03/31 14:36:24;;;;;;;2.07;1.30;;;;;;;;;;4995267;28;20504;-54
2023/03/31 14:38:50;;;;;;;2.70;0.80;;;;;;;;;;4969116;28;21303;-53
2023/03/31 14:41:20;;;;;;;1.07;0.67;;;;;;;;;;4989713;28;20850;-54
2023/03/31 14:43:49;;;;;;;2.37;0.97;;;;;;;;;;4960363;28;21024;-53
2023/03/31 14:46:18;;;;;;;3.07;1.00;;;;;;;;;;4998597;28;20579;-53
2023/03/31 14:48:46;;;;;;;1.30;0.70;;;;;;;;;;4975572;28;20557;-52
2023/03/31 14:51:12;;;;;;;1.00;0.60;;;;;;;;;;5004210;28;21861;-52
2023/03/31 14:53:38;;;;;;;1.10;0.63;;;;;;;;;;4962713;28;20432;-55
2023/03/31 14:56:07;;;;;;;2.03;0.80;;;;;;;;;;4996641;28;20444;-53
2023/03/31 14:58:34;;;;;;;2.47;0.90;;;;;;;;;;4996139;28;20468;-54
2023/03/31 15:01:00;;;;;;;2.60;1.63;;;;;;;;;;4978244;28;20440;-53